createdAt,value
2019-06-01T00:00:23.424Z,6.60
2019-06-01T00:02:56.407Z,6.37
2019-06-01T00:05:22.923Z,6.00
2019-06-01T00:07:51.901Z,6.80
2019-06-01T00:10:21.035Z,6.40
2019-06-01T00:12:50.111Z,7.03
2019-06-01T00:15:19.471Z,6.60
2019-06-01T00:17:48.403Z,6.08
2019-06-01T00:20:17.465Z,6.20
2019-06-01T00:22:47.502Z,5.70
2019-06-01T00:25:16.572Z,5.67
2019-06-01T00:27:46.676Z,5.80
2019-06-01T00:30:26.724Z,4.80
2019-06-01T00:32:47.284Z,5.08
2019-06-01T00:35:16.621Z,4.92
2019-06-01T00:37:47.584Z,4.70
2019-06-01T00:40:16.258Z,5.00
2019-06-01T00:42:46.076Z,5.45
2019-06-01T00:45:15.292Z,5.30
2019-06-01T00:47:44.758Z,5.58
2019-06-01T00:50:13.788Z,5.62
2019-06-01T00:52:42.984Z,5.28
2019-06-01T00:55:12.153Z,5.47
2019-06-01T00:57:41.081Z,5.72
2019-06-01T01:00:11.196Z,5.15
2019-06-01T01:02:40.302Z,5.50
2019-06-01T01:05:14.347Z,5.95
2019-06-01T01:07:46.462Z,5.87
2019-06-01T01:10:16.440Z,5.78
2019-06-01T01:13:03.232Z,5.15
2019-06-01T01:15:32.196Z,5.95
2019-06-01T01:18:01.121Z,5.87
2019-06-01T01:20:30.088Z,5.80
2019-06-01T01:22:59.035Z,5.50
2019-06-01T01:25:28.072Z,6.40
2019-06-01T01:27:57.134Z,6.12
2019-06-01T01:30:26.266Z,6.20
2019-06-01T01:32:55.790Z,7.55
2019-06-01T01:35:25.178Z,6.72
2019-06-01T01:37:58.157Z,6.85
2019-06-01T01:40:27.567Z,7.47
2019-06-01T01:42:56.590Z,7.85
2019-06-01T01:45:26.039Z,7.65
2019-06-01T01:47:55.137Z,8.05
2019-06-01T01:50:26.416Z,7.78
2019-06-01T01:52:56.835Z,7.80
2019-06-01T01:55:25.981Z,8.43
2019-06-01T01:57:55.396Z,7.72
2019-06-01T02:00:37.621Z,8.18
2019-06-01T02:03:06.605Z,8.90
2019-06-01T02:05:35.559Z,8.90
2019-06-01T02:08:04.969Z,8.58
2019-06-01T02:10:33.933Z,9.15
2019-06-01T02:13:02.861Z,8.40
2019-06-01T02:15:31.770Z,8.20
2019-06-01T02:18:00.795Z,8.90
2019-06-01T02:20:29.672Z,8.03
2019-06-01T02:22:58.912Z,9.08
2019-06-01T02:25:28.234Z,8.48
2019-06-01T02:27:57.425Z,8.03
2019-06-01T02:30:26.440Z,8.00
2019-06-01T02:32:56.297Z,7.75
2019-06-01T02:35:25.721Z,8.85
2019-06-01T02:37:56.308Z,9.35
2019-06-01T02:40:25.817Z,8.58
2019-06-01T02:42:55.069Z,9.05
2019-06-01T02:45:24.661Z,9.00
2019-06-01T02:47:55.250Z,8.88
2019-06-01T02:50:24.372Z,9.15
2019-06-01T02:52:53.372Z,9.53
2019-06-01T02:55:22.408Z,9.63
2019-06-01T02:57:51.547Z,9.18
2019-06-01T03:00:42.527Z,9.35
2019-06-01T03:03:11.486Z,9.53
2019-06-01T03:05:40.895Z,8.90
2019-06-01T03:08:10.329Z,9.50
2019-06-01T03:10:40.108Z,9.15
2019-06-01T03:13:11.004Z,10.13
2019-06-01T03:15:42.695Z,9.85
2019-06-01T03:18:13.845Z,9.50
2019-06-01T03:20:45.958Z,10.90
2019-06-01T03:23:17.587Z,10.30
2019-06-01T03:25:48.895Z,8.95
2019-06-01T03:28:20.765Z,10.38
2019-06-01T03:30:49.605Z,10.93
2019-06-01T03:33:18.587Z,10.00
2019-06-01T03:35:47.431Z,9.88
2019-06-01T03:38:16.256Z,10.65
2019-06-01T03:40:45.354Z,10.82
2019-06-01T03:43:14.318Z,10.78
2019-06-01T03:45:43.152Z,11.93
2019-06-01T03:48:12.993Z,10.90
2019-06-01T03:50:42.233Z,10.30
2019-06-01T03:53:12.197Z,10.32
2019-06-01T03:55:41.316Z,11.15
2019-06-01T03:58:11.165Z,10.63
2019-06-01T04:00:40.091Z,11.95
2019-06-01T04:03:09.231Z,9.50
2019-06-01T04:05:38.169Z,12.20
2019-06-01T04:08:07.553Z,10.95
2019-06-01T04:10:36.529Z,11.93
2019-06-01T04:13:05.654Z,11.18
2019-06-01T04:15:34.542Z,10.30
2019-06-01T04:18:03.903Z,11.03
2019-06-01T04:20:32.824Z,9.85
2019-06-01T04:23:02.015Z,11.80
2019-06-01T04:25:32.512Z,11.63
2019-06-01T04:28:02.150Z,10.30
2019-06-01T04:30:31.485Z,9.70
2019-06-01T04:33:00.460Z,10.93
2019-06-01T04:35:29.215Z,10.75
2019-06-01T04:37:57.959Z,10.50
2019-06-01T04:40:26.847Z,9.75
2019-06-01T04:42:55.645Z,10.45
2019-06-01T04:45:24.521Z,10.48
2019-06-01T04:47:53.272Z,9.75
2019-06-01T04:50:22.088Z,10.20
2019-06-01T04:52:50.866Z,10.15
2019-06-01T04:55:19.826Z,10.38
2019-06-01T04:57:48.723Z,10.25
2019-06-01T05:00:27.913Z,9.73
2019-06-01T05:02:48.470Z,10.18
2019-06-01T05:05:17.551Z,10.78
2019-06-01T05:07:46.321Z,9.80
2019-06-01T05:10:16.097Z,10.10
2019-06-01T05:12:45.077Z,10.53
2019-06-01T05:15:16.066Z,9.68
2019-06-01T05:17:45.216Z,9.98
2019-06-01T05:20:15.013Z,9.95
2019-06-01T05:22:43.767Z,10.32
2019-06-01T05:25:13.649Z,9.60
2019-06-01T05:27:43.501Z,10.23
2019-06-01T05:30:13.729Z,10.48
2019-06-01T05:32:42.866Z,10.48
2019-06-01T05:35:11.854Z,9.83
2019-06-01T05:37:40.602Z,9.55
2019-06-01T05:40:10.475Z,9.98
2019-06-01T05:42:39.795Z,10.00
2019-06-01T05:45:09.451Z,8.75
2019-06-01T05:47:38.304Z,10.25
2019-06-01T05:50:07.620Z,9.90
2019-06-01T05:52:36.420Z,10.53
2019-06-01T05:55:05.594Z,9.00
2019-06-01T05:57:34.407Z,9.55
2019-06-01T06:00:03.346Z,8.23
2019-06-01T06:02:32.087Z,8.95
2019-06-01T06:05:00.961Z,8.78
2019-06-01T06:07:35.165Z,8.80
2019-06-01T06:10:04.448Z,8.45
2019-06-01T06:12:33.409Z,8.48
2019-06-01T06:15:02.313Z,8.30
2019-06-01T06:17:31.305Z,8.90
2019-06-01T06:20:00.367Z,8.60
2019-06-01T06:22:29.464Z,8.33
2019-06-01T06:24:58.483Z,7.53
2019-06-01T06:27:27.477Z,7.85
2019-06-01T06:29:56.453Z,7.58
2019-06-01T06:32:25.549Z,7.75
2019-06-01T06:34:54.464Z,7.15
2019-06-01T06:37:23.898Z,7.78
2019-06-01T06:39:53.014Z,7.30
2019-06-01T06:42:22.361Z,7.37
2019-06-01T06:44:53.109Z,7.05
2019-06-01T06:47:23.007Z,7.12
2019-06-01T06:49:52.088Z,7.35
2019-06-01T06:52:21.564Z,7.08
2019-06-01T06:54:50.879Z,7.08
2019-06-01T06:57:20.164Z,7.17
2019-06-01T06:59:49.439Z,6.72
2019-06-01T07:02:29.779Z,6.62
2019-06-01T07:04:57.158Z,6.50
2019-06-01T07:07:26.124Z,6.85
2019-06-01T07:09:54.963Z,6.60
2019-06-01T07:12:23.825Z,7.37
2019-06-01T07:14:52.652Z,6.67
2019-06-01T07:17:21.951Z,6.65
2019-06-01T07:19:51.004Z,7.10
2019-06-01T07:22:19.980Z,6.78
2019-06-01T07:24:48.974Z,6.55
2019-06-01T07:27:18.131Z,6.87
2019-06-01T07:29:47.097Z,7.22
2019-06-01T07:32:16.149Z,6.60
2019-06-01T07:34:45.237Z,6.40
2019-06-01T07:37:14.558Z,7.40
2019-06-01T07:39:43.501Z,6.83
2019-06-01T07:42:12.313Z,6.25
2019-06-01T07:44:41.229Z,5.62
2019-06-01T07:47:10.134Z,5.83
2019-06-01T07:49:38.929Z,6.45
2019-06-01T07:52:12.575Z,6.05
2019-06-01T07:54:38.448Z,5.70
2019-06-01T07:57:07.207Z,6.05
2019-06-01T07:59:35.976Z,6.03
2019-06-01T08:02:04.911Z,5.83
2019-06-01T08:04:50.736Z,5.67
2019-06-01T08:07:04.504Z,6.28
2019-06-01T08:09:33.348Z,5.67
2019-06-01T08:12:02.304Z,6.80
2019-06-01T08:14:31.261Z,6.25
2019-06-01T08:17:00.228Z,6.72
2019-06-01T08:19:30.109Z,6.37
2019-06-01T08:21:58.969Z,6.20
2019-06-01T08:24:28.300Z,6.08
2019-06-01T08:26:58.017Z,6.35
2019-06-01T08:29:26.837Z,6.05
2019-06-01T08:31:56.034Z,5.80
2019-06-01T08:34:24.899Z,5.97
2019-06-01T08:36:53.717Z,6.47
2019-06-01T08:39:23.481Z,5.87
2019-06-01T08:41:52.580Z,5.45
2019-06-01T08:44:21.493Z,5.30
2019-06-01T08:46:50.317Z,6.50
2019-06-01T08:49:19.340Z,5.80
2019-06-01T08:51:51.103Z,5.60
2019-06-01T08:54:20.068Z,5.40
2019-06-01T08:56:48.984Z,5.67
2019-06-01T08:59:18.104Z,5.53
2019-06-01T09:01:46.951Z,5.72
2019-06-01T09:04:15.751Z,5.83
2019-06-01T09:06:44.712Z,5.58
2019-06-01T09:09:13.641Z,6.20
2019-06-01T09:11:42.684Z,6.37
2019-06-01T09:14:11.549Z,6.05
2019-06-01T09:16:40.368Z,5.97
2019-06-01T09:19:11.436Z,6.10
2019-06-01T09:21:39.860Z,6.08
2019-06-01T09:24:09.799Z,5.78
2019-06-01T09:26:38.733Z,7.00
2019-06-01T09:29:07.654Z,6.30
2019-06-01T09:31:36.729Z,6.20
2019-06-01T09:34:05.812Z,6.83
2019-06-01T09:36:34.805Z,6.83
2019-06-01T09:39:05.200Z,6.87
2019-06-01T09:41:34.556Z,6.65
2019-06-01T09:44:03.913Z,6.33
2019-06-01T09:46:34.048Z,5.65
2019-06-01T09:49:03.637Z,5.97
2019-06-01T09:51:33.445Z,5.78
2019-06-01T09:54:02.509Z,6.22
2019-06-01T09:56:33.495Z,5.80
2019-06-01T09:59:02.211Z,5.45
2019-06-01T10:01:32.396Z,5.35
2019-06-01T10:04:01.423Z,5.12
2019-06-01T10:06:30.436Z,5.00
2019-06-01T10:08:59.438Z,5.30
2019-06-01T10:11:28.317Z,5.58
2019-06-01T10:13:57.149Z,6.10
2019-06-01T10:16:26.087Z,5.05
2019-06-01T10:18:54.949Z,5.10
2019-06-01T10:21:23.916Z,4.12
2019-06-01T10:23:52.850Z,4.37
2019-06-01T10:26:21.708Z,4.72
2019-06-01T10:28:50.581Z,4.90
2019-06-01T10:31:19.465Z,4.12
2019-06-01T10:33:51.407Z,4.10
2019-06-01T10:36:21.290Z,4.53
2019-06-01T10:38:49.692Z,4.90
2019-06-01T10:41:19.023Z,4.75
2019-06-01T10:43:48.016Z,5.35
2019-06-01T10:46:18.087Z,3.92
2019-06-01T10:48:46.983Z,5.67
2019-06-01T10:51:16.251Z,4.80
2019-06-01T10:53:45.774Z,7.03
2019-06-01T10:56:14.743Z,5.67
2019-06-01T10:58:59.730Z,5.42
2019-06-01T11:01:14.457Z,4.90
2019-06-01T11:03:43.670Z,5.10
2019-06-01T11:06:12.582Z,5.92
2019-06-01T11:08:43.149Z,5.58
2019-06-01T11:11:12.455Z,4.80
2019-06-01T11:13:41.482Z,4.60
2019-06-01T11:16:10.510Z,4.08
2019-06-01T11:18:39.685Z,4.90
2019-06-01T11:21:08.796Z,3.85
2019-06-01T11:23:37.870Z,3.70
2019-06-01T11:26:06.963Z,2.30
2019-06-01T11:28:36.182Z,3.08
2019-06-01T11:31:05.904Z,2.40
2019-06-01T11:33:35.964Z,2.47
2019-06-01T11:36:05.156Z,2.70
2019-06-01T11:38:34.671Z,2.40
2019-06-01T11:41:03.816Z,2.55
2019-06-01T11:43:32.784Z,2.30
2019-06-01T11:46:02.146Z,2.02
2019-06-01T11:48:31.182Z,1.90
2019-06-01T11:51:00.297Z,2.02
2019-06-01T11:53:29.266Z,2.00
2019-06-01T11:55:58.307Z,2.08
2019-06-01T11:58:27.322Z,2.10
2019-06-01T12:00:56.361Z,2.00
2019-06-01T12:03:25.304Z,1.77
2019-06-01T12:05:54.499Z,2.00
2019-06-01T12:08:23.539Z,2.12
2019-06-01T12:10:52.768Z,2.45
2019-06-01T12:13:21.990Z,2.50
2019-06-01T12:15:50.890Z,2.47
2019-06-01T12:18:20.314Z,2.10
2019-06-01T12:20:49.306Z,2.20
2019-06-01T12:23:18.470Z,2.35
2019-06-01T12:25:48.463Z,2.60
2019-06-01T12:28:17.916Z,2.65
2019-06-01T12:30:49.796Z,2.60
2019-06-01T12:33:19.063Z,3.30
2019-06-01T12:35:50.456Z,3.40
2019-06-01T12:38:19.733Z,3.70
2019-06-01T12:40:48.933Z,3.80
2019-06-01T12:43:18.157Z,4.20
2019-06-01T12:46:04.856Z,3.70
2019-06-01T12:48:26.564Z,3.80
2019-06-01T12:50:55.998Z,4.00
2019-06-01T12:53:25.304Z,4.25
2019-06-01T12:55:54.207Z,4.87
2019-06-01T12:58:23.699Z,3.85
2019-06-01T13:00:52.992Z,3.92
2019-06-01T13:03:22.155Z,4.30
2019-06-01T13:05:51.930Z,4.00
2019-06-01T13:08:21.360Z,3.45
2019-06-01T13:10:50.239Z,4.35
2019-06-01T13:13:19.365Z,3.45
2019-06-01T13:15:49.354Z,3.30
2019-06-01T13:18:18.560Z,3.02
2019-06-01T13:20:47.712Z,3.83
2019-06-01T13:23:16.850Z,4.20
2019-06-01T13:25:45.938Z,3.72
2019-06-01T13:28:15.086Z,3.58
2019-06-01T13:30:51.131Z,3.33
2019-06-01T13:33:21.053Z,3.47
2019-06-01T13:35:53.137Z,3.62
2019-06-01T13:38:24.578Z,3.05
2019-06-01T13:40:53.550Z,3.42
2019-06-01T13:43:25.521Z,3.70
2019-06-01T13:45:57.945Z,3.17
2019-06-01T13:48:27.167Z,3.98
2019-06-01T13:50:56.204Z,3.67
2019-06-01T13:53:25.345Z,3.80
2019-06-01T13:55:54.882Z,3.45
2019-06-01T13:58:25.314Z,3.20
2019-06-01T14:00:56.631Z,3.95
2019-06-01T14:03:25.796Z,4.10
2019-06-01T14:05:55.119Z,4.65
2019-06-01T14:08:29.074Z,4.55
2019-06-01T14:10:55.569Z,5.58
2019-06-01T14:13:24.991Z,4.28
2019-06-01T14:15:54.108Z,4.65
2019-06-01T14:18:23.466Z,5.08
2019-06-01T14:20:52.289Z,4.28
2019-06-01T14:23:21.174Z,3.70
2019-06-01T14:25:50.223Z,4.03
2019-06-01T14:28:19.124Z,4.40
2019-06-01T14:30:48.463Z,3.67
2019-06-01T14:33:17.672Z,4.17
2019-06-01T14:35:46.588Z,3.55
2019-06-01T14:38:19.979Z,4.08
2019-06-01T14:40:52.355Z,3.40
2019-06-01T14:43:25.686Z,3.72
2019-06-01T14:45:58.158Z,3.77
2019-06-01T14:48:29.754Z,4.60
2019-06-01T14:51:01.319Z,3.95
2019-06-01T14:53:34.619Z,3.58
2019-06-01T14:56:08.645Z,4.20
2019-06-01T14:58:38.301Z,3.90
2019-06-01T15:01:10.073Z,3.60
2019-06-01T15:03:43.755Z,3.80
2019-06-01T15:06:22.171Z,3.90
2019-06-01T15:09:15.635Z,4.30
2019-06-01T15:11:35.177Z,4.17
2019-06-01T15:14:04.951Z,4.90
2019-06-01T15:16:38.713Z,4.22
2019-06-01T15:19:07.919Z,4.17
2019-06-01T15:21:44.219Z,4.42
2019-06-01T15:24:13.718Z,4.08
2019-06-01T15:26:46.608Z,4.60
2019-06-01T15:29:16.107Z,4.58
2019-06-01T15:31:45.562Z,4.58
2019-06-01T15:34:15.819Z,4.42
2019-06-01T15:36:45.064Z,4.47
2019-06-01T15:39:24.570Z,3.90
2019-06-01T15:42:14.419Z,4.60
2019-06-01T15:44:43.994Z,4.00
2019-06-01T15:47:15.615Z,3.83
2019-06-01T15:49:44.635Z,4.92
2019-06-01T15:52:15.564Z,4.92
2019-06-01T15:54:44.976Z,4.60
2019-06-01T15:57:14.133Z,4.80
2019-06-01T15:59:52.403Z,4.97
2019-06-01T16:02:21.401Z,5.00
2019-06-01T16:04:53.058Z,4.67
2019-06-01T16:07:27.843Z,5.45
2019-06-01T16:09:55.413Z,4.97
2019-06-01T16:12:24.824Z,4.95
2019-06-01T16:14:54.017Z,5.50
2019-06-01T16:17:23.332Z,5.62
2019-06-01T16:19:53.817Z,5.17
2019-06-01T16:22:22.777Z,5.40
2019-06-01T16:24:51.801Z,5.12
2019-06-01T16:27:21.179Z,6.03
2019-06-01T16:29:50.117Z,4.83
2019-06-01T16:32:19.151Z,6.10
2019-06-01T16:34:47.977Z,6.90
2019-06-01T16:37:19.102Z,6.08
2019-06-01T16:39:58.848Z,7.08
2019-06-01T16:42:19.342Z,7.03
2019-06-01T16:44:48.478Z,7.20
2019-06-01T16:47:17.999Z,6.65
2019-06-01T16:49:47.054Z,7.22
2019-06-01T16:52:15.965Z,6.72
2019-06-01T16:54:45.028Z,7.60
2019-06-01T16:57:14.298Z,7.40
2019-06-01T16:59:43.465Z,7.00
2019-06-01T17:02:12.315Z,7.35
2019-06-01T17:04:41.166Z,6.90
2019-06-01T17:07:10.041Z,9.05
2019-06-01T17:09:39.133Z,7.35
2019-06-01T17:12:08.055Z,16.52
2019-06-01T17:14:37.032Z,21.65
2019-06-01T17:17:07.479Z,9.30
2019-06-01T17:19:38.429Z,9.15
2019-06-01T17:22:07.850Z,7.58
2019-06-01T17:24:47.375Z,8.33
2019-06-01T17:27:08.183Z,8.20
2019-06-01T17:29:37.430Z,7.90
2019-06-01T17:32:22.698Z,12.30
2019-06-01T17:34:37.536Z,9.05
2019-06-01T17:37:06.854Z,5.80
2019-06-01T17:39:36.297Z,5.85
2019-06-01T17:42:06.454Z,6.20
2019-06-01T17:44:35.833Z,6.58
2019-06-01T17:47:06.179Z,6.58
2019-06-01T17:49:35.443Z,6.12
2019-06-01T17:52:07.671Z,5.83
2019-06-01T17:54:37.991Z,6.97
2019-06-01T17:57:07.335Z,7.15
2019-06-01T17:59:36.417Z,6.75
2019-06-01T18:02:05.830Z,6.22
2019-06-01T18:04:35.399Z,6.15
2019-06-01T18:07:08.013Z,6.17
2019-06-01T18:09:38.429Z,5.78
2019-06-01T18:12:08.191Z,6.28
2019-06-01T18:14:37.615Z,6.05
2019-06-01T18:17:10.343Z,6.05
2019-06-01T18:19:43.250Z,6.60
2019-06-01T18:22:37.285Z,7.28
2019-06-01T18:25:48.439Z,8.43
2019-06-01T18:28:52.209Z,7.22
2019-06-01T18:31:35.432Z,7.70
2019-06-01T18:34:07.789Z,7.05
2019-06-01T18:36:37.173Z,6.80
2019-06-01T18:39:08.036Z,7.58
2019-06-01T18:41:37.371Z,7.30
2019-06-01T18:44:07.708Z,7.47
2019-06-01T18:46:38.203Z,7.40
2019-06-01T18:49:07.996Z,7.65
2019-06-01T18:51:37.857Z,7.20
2019-06-01T18:54:08.859Z,7.28
2019-06-01T18:56:38.121Z,7.30
2019-06-01T18:59:08.538Z,7.37
2019-06-01T19:01:38.377Z,7.70
2019-06-01T19:04:07.702Z,6.90
2019-06-01T19:06:36.834Z,6.35
2019-06-01T19:09:09.389Z,7.58
2019-06-01T19:11:39.035Z,8.58
2019-06-01T19:14:09.844Z,8.28
2019-06-01T19:16:39.161Z,7.45
2019-06-01T19:19:08.543Z,7.33
2019-06-01T19:21:38.050Z,7.40
2019-06-01T19:24:10.528Z,7.05
2019-06-01T19:26:41.411Z,7.28
2019-06-01T19:29:12.977Z,7.00
2019-06-01T19:31:44.188Z,7.58
2019-06-01T19:34:13.471Z,7.80
2019-06-01T19:36:45.357Z,7.78
2019-06-01T19:39:17.555Z,7.65
2019-06-01T19:41:47.062Z,6.92
2019-06-01T19:44:17.745Z,7.70
2019-06-01T19:46:49.783Z,7.42
2019-06-01T19:49:19.370Z,6.70
2019-06-01T19:51:51.068Z,7.20
2019-06-01T19:54:20.423Z,7.62
2019-06-01T19:56:52.285Z,6.05
2019-06-01T19:59:22.227Z,6.97
2019-06-01T20:01:59.156Z,7.25
2019-06-01T20:04:39.107Z,7.30
2019-06-01T20:07:12.991Z,7.10
2019-06-01T20:09:42.860Z,6.92
2019-06-01T20:12:16.641Z,6.80
2019-06-01T20:14:45.787Z,6.55
2019-06-01T20:20:04.017Z,7.00
2019-06-01T20:22:35.946Z,6.70
2019-06-01T20:25:11.263Z,7.53
2019-06-01T20:27:41.027Z,7.35
2019-06-01T20:30:13.687Z,6.87
2019-06-01T20:32:46.159Z,7.00
2019-06-01T20:35:20.116Z,6.92
2019-06-01T20:37:50.808Z,6.92
2019-06-01T20:40:20.411Z,7.05
2019-06-01T20:42:50.045Z,7.12
2019-06-01T20:45:26.096Z,7.00
2019-06-01T20:47:58.110Z,7.60
2019-06-01T20:50:28.715Z,7.80
2019-06-01T20:52:59.300Z,7.60
2019-06-01T20:55:30.810Z,7.75
2019-06-01T20:58:00.201Z,7.95
2019-06-01T21:00:31.760Z,8.10
2019-06-01T21:03:00.382Z,8.90
2019-06-01T21:05:30.780Z,8.78
2019-06-01T21:08:00.234Z,8.25
2019-06-01T21:10:29.696Z,8.88
2019-06-01T21:12:59.177Z,9.03
2019-06-01T21:15:28.610Z,8.90
2019-06-01T21:17:57.878Z,8.60
2019-06-01T21:20:29.999Z,9.70
2019-06-01T21:22:58.196Z,9.58
2019-06-01T21:25:27.899Z,10.90
2019-06-01T21:27:57.324Z,10.63
2019-06-01T21:30:26.625Z,10.50
2019-06-01T21:32:55.870Z,11.03
2019-06-01T21:35:25.568Z,11.30
2019-06-01T21:37:55.124Z,12.00
2019-06-01T21:40:25.736Z,10.95
2019-06-01T21:43:03.188Z,11.68
2019-06-01T21:45:26.348Z,12.30
2019-06-01T21:47:55.531Z,11.60
2019-06-01T21:50:25.974Z,11.75
2019-06-01T21:52:55.511Z,12.90
2019-06-01T21:55:26.290Z,12.53
2019-06-01T21:57:55.642Z,12.58
2019-06-01T22:00:33.892Z,12.28
2019-06-01T22:03:03.359Z,13.43
2019-06-01T22:05:33.431Z,13.58
2019-06-01T22:08:02.553Z,14.05
2019-06-01T22:10:31.727Z,14.38
2019-06-01T22:13:17.214Z,14.07
2019-06-01T22:15:31.814Z,14.38
2019-06-01T22:18:00.944Z,13.95
2019-06-01T22:20:30.261Z,14.15
2019-06-01T22:22:59.539Z,14.68
2019-06-01T22:25:28.657Z,14.30
2019-06-01T22:27:57.782Z,14.87
2019-06-01T22:30:27.066Z,14.75
2019-06-01T22:32:56.163Z,14.63
2019-06-01T22:35:26.682Z,14.98
2019-06-01T22:37:56.257Z,14.73
2019-06-01T22:40:25.412Z,14.80
2019-06-01T22:42:54.518Z,15.25
2019-06-01T22:45:24.641Z,14.15
2019-06-01T22:47:53.926Z,14.58
2019-06-01T22:50:23.158Z,15.25
2019-06-01T22:52:52.242Z,15.13
2019-06-01T22:55:22.016Z,15.32
2019-06-01T22:57:51.497Z,14.80
2019-06-01T23:00:21.475Z,15.03
2019-06-01T23:02:50.978Z,14.75
2019-06-01T23:05:20.909Z,14.33
2019-06-01T23:07:50.218Z,13.93
2019-06-01T23:10:23.889Z,14.75
2019-06-01T23:12:50.227Z,14.95
2019-06-01T23:15:19.617Z,14.53
2019-06-01T23:17:48.724Z,15.53
2019-06-01T23:20:17.856Z,15.43
2019-06-01T23:22:46.997Z,15.60
2019-06-01T23:25:16.097Z,14.70
2019-06-01T23:27:45.233Z,14.83
2019-06-01T23:30:15.024Z,15.35
2019-06-01T23:32:44.100Z,15.28
2019-06-01T23:35:15.810Z,15.25
2019-06-01T23:37:45.010Z,15.35
2019-06-01T23:40:14.149Z,15.43
2019-06-01T23:42:43.236Z,14.98
2019-06-01T23:45:12.419Z,15.43
2019-06-01T23:47:41.527Z,15.00
2019-06-01T23:50:10.825Z,15.10
2019-06-01T23:52:41.468Z,15.18
2019-06-01T23:55:10.766Z,14.58
2019-06-01T23:57:39.957Z,16.07
